Time;durP1;ratioP1;P1;durP2;ratioP2;P2;SDS_P1;SDS_P2;PMS_P1;PMS_P2;Temp;Humidity;BMP_temperature;BMP_pressure;BME280_temperature;BME280_humidity;BME280_pressure;Samples;Min_cycle;Max_cycle;Signal;HPM_P1;HPM_P2
2021/06/03 00:01:54;;;;;;;4.73;4.20;;;23.20;70.00;;;;;;5022392;28;20243;-77
2021/06/03 00:04:19;;;;;;;5.13;4.73;;;23.20;70.30;;;;;;5024737;28;20212;-76
2021/06/03 00:06:45;;;;;;;5.67;5.17;;;23.20;70.80;;;;;;5025063;28;20436;-78
2021/06/03 00:09:12;;;;;;;5.43;5.03;;;23.10;70.90;;;;;;5026175;28;20213;-76
2021/06/03 00:11:38;;;;;;;5.80;5.40;;;23.10;71.10;;;;;;5027131;28;21219;-77
2021/06/03 00:14:05;;;;;;;6.00;5.47;;;22.80;71.40;;;;;;5027165;28;20439;-77
2021/06/03 00:16:33;;;;;;;5.70;5.10;;;22.70;71.70;;;;;;5024995;28;20192;-75
2021/06/03 00:19:05;;;;;;;5.43;5.03;;;22.80;71.90;;;;;;5026472;28;20562;-75
2021/06/03 00:21:31;;;;;;;5.23;4.53;;;22.90;72.30;;;;;;5018177;28;20435;-77
2021/06/03 00:23:57;;;;;;;6.23;5.63;;;22.90;72.10;;;;;;5022692;28;20459;-75
2021/06/03 00:26:23;;;;;;;6.10;5.70;;;22.90;72.20;;;;;;5026845;28;20802;-76
2021/06/03 00:28:48;;;;;;;5.00;4.50;;;22.80;72.20;;;;;;5025520;28;20679;-78
2021/06/03 00:31:14;;;;;;;4.93;4.60;;;22.80;72.70;;;;;;5024572;28;20185;-75
2021/06/03 00:33:41;;;;;;;7.53;5.20;;;22.80;73.30;;;;;;5025699;28;20200;-75
2021/06/03 00:36:08;;;;;;;5.60;5.10;;;22.70;73.80;;;;;;5027567;28;20446;-76
2021/06/03 00:38:34;;;;;;;5.53;5.03;;;22.70;73.70;;;;;;5025759;28;20864;-75
2021/06/03 00:41:00;;;;;;;5.77;5.27;;;22.70;74.30;;;;;;5026987;28;20492;-75
2021/06/03 00:43:26;;;;;;;5.53;5.03;;;22.50;74.70;;;;;;5027397;28;20475;-76
2021/06/03 00:45:52;;;;;;;5.43;4.97;;;22.50;75.20;;;;;;5022663;28;20196;-77
2021/06/03 00:48:17;;;;;;;5.87;5.10;;;22.60;75.30;;;;;;5027473;28;20600;-76
2021/06/03 00:50:50;;;;;;;5.20;4.70;;;22.50;75.20;;;;;;5023792;28;20300;-76
2021/06/03 00:53:17;;;;;;;4.83;4.43;;;22.50;75.50;;;;;;5010017;28;20195;-75
2021/06/03 00:55:49;;;;;;;5.60;5.20;;;22.50;76.00;;;;;;5027948;28;20823;-76
2021/06/03 00:58:16;;;;;;;6.30;5.70;;;22.50;76.50;;;;;;5020460;28;20466;-76
2021/06/03 01:00:41;;;;;;;5.43;4.80;;;22.50;76.30;;;;;;5025120;28;20436;-75
2021/06/03 01:03:08;;;;;;;5.83;5.33;;;22.50;77.20;;;;;;5027262;28;20462;-75
2021/06/03 01:05:42;;;;;;;5.97;5.50;;;22.40;77.40;;;;;;5024786;28;20474;-75
2021/06/03 01:08:20;;;;;;;6.77;5.67;;;22.30;78.20;;;;;;5027599;28;20457;-75
2021/06/03 01:11:21;;;;;;;5.37;4.97;;;22.20;78.80;;;;;;5027555;28;20418;-75
2021/06/03 01:14:02;;;;;;;5.40;4.90;;;22.10;79.40;;;;;;5022541;28;20454;-76
2021/06/03 01:16:29;;;;;;;6.60;6.10;;;22.20;79.60;;;;;;5021987;28;20470;-75
2021/06/03 01:18:56;;;;;;;7.43;5.20;;;22.30;80.30;;;;;;5028410;28;20443;-75
2021/06/03 01:21:29;;;;;;;6.03;5.43;;;22.30;80.50;;;;;;5024724;28;20494;-75
2021/06/03 01:24:08;;;;;;;6.20;5.67;;;22.30;80.70;;;;;;5026864;28;20467;-75
2021/06/03 01:26:35;;;;;;;5.40;5.00;;;22.20;80.90;;;;;;5022603;28;20439;-75
2021/06/03 01:29:01;;;;;;;5.97;5.40;;;22.00;81.60;;;;;;5027424;28;20447;-75
2021/06/03 01:31:27;;;;;;;5.83;5.20;;;22.00;82.40;;;;;;5023630;28;20773;-75
2021/06/03 01:33:53;;;;;;;10.20;5.70;;;22.00;83.30;;;;;;5028905;28;20458;-76
2021/06/03 01:36:20;;;;;;;6.07;5.57;;;22.00;83.40;;;;;;5027267;28;20185;-76
2021/06/03 01:38:47;;;;;;;5.73;5.33;;;22.10;83.80;;;;;;5025919;28;20621;-75
2021/06/03 01:41:13;;;;;;;6.17;5.63;;;21.90;84.40;;;;;;5025817;28;20426;-75
2021/06/03 01:43:42;;;;;;;5.83;5.23;;;21.70;85.90;;;;;;5025099;28;20473;-75
2021/06/03 01:46:08;;;;;;;6.30;5.70;;;21.70;86.90;;;;;;5024945;28;20578;-75
2021/06/03 01:48:34;;;;;;;5.30;4.90;;;21.70;87.90;;;;;;5026685;28;20916;-75
2021/06/03 01:51:04;;;;;;;5.70;5.20;;;21.80;88.30;;;;;;5025019;28;20419;-75
2021/06/03 01:53:31;;;;;;;6.17;5.60;;;21.90;88.20;;;;;;5023300;28;20446;-75
2021/06/03 01:56:03;;;;;;;5.67;5.17;;;21.90;88.90;;;;;;5026283;28;20426;-75
2021/06/03 01:58:29;;;;;;;5.93;5.43;;;21.80;89.60;;;;;;5025768;28;20466;-75
2021/06/03 02:00:58;;;;;;;5.23;4.83;;;21.90;90.20;;;;;;5025605;28;20591;-75
2021/06/03 02:03:25;;;;;;;6.57;5.70;;;21.90;90.40;;;;;;5024782;28;20466;-74
2021/06/03 02:05:52;;;;;;;6.47;5.97;;;21.80;90.70;;;;;;5023960;28;20419;-75
2021/06/03 02:08:18;;;;;;;5.60;5.20;;;21.90;91.20;;;;;;5024778;28;20509;-75
2021/06/03 02:10:45;;;;;;;6.70;6.10;;;21.90;91.40;;;;;;5024926;28;21884;-75
2021/06/03 02:13:17;;;;;;;5.90;5.40;;;21.90;91.80;;;;;;5024986;28;20492;-75
2021/06/03 02:15:57;;;;;;;6.57;6.07;;;21.90;91.90;;;;;;5025062;28;20427;-75
2021/06/03 02:18:32;;;;;;;7.03;6.43;;;21.90;92.30;;;;;;5022526;28;20463;-75
2021/06/03 02:20:59;;;;;;;7.70;6.37;;;21.70;92.80;;;;;;5021398;28;20432;-75
2021/06/03 02:23:27;;;;;;;6.17;5.70;;;21.80;93.20;;;;;;5025156;28;20479;-75
2021/06/03 02:26:03;;;;;;;6.87;6.27;;;21.70;93.50;;;;;;5026394;28;20518;-75
2021/06/03 02:28:30;;;;;;;7.43;6.83;;;21.70;94.50;;;;;;5030263;28;20465;-75
2021/06/03 02:30:57;;;;;;;6.80;6.20;;;21.60;95.10;;;;;;5029660;28;20443;-75
2021/06/03 02:33:23;;;;;;;6.60;5.87;;;21.50;95.80;;;;;;5030746;28;20434;-75
2021/06/03 02:35:49;;;;;;;6.83;6.23;;;21.60;96.70;;;;;;5026792;28;20443;-75
2021/06/03 02:38:21;;;;;;;9.37;6.87;;;21.60;97.10;;;;;;5025103;28;20227;-75
2021/06/03 02:40:47;;;;;;;6.47;5.97;;;21.40;98.20;;;;;;5028512;28;20420;-75
2021/06/03 02:43:13;;;;;;;8.10;7.40;;;21.40;99.00;;;;;;5027060;28;20470;-75
2021/06/03 02:45:38;;;;;;;7.70;6.93;;;21.20;99.90;;;;;;5028830;28;20485;-75
2021/06/03 02:48:04;;;;;;;7.53;6.80;;;21.10;99.90;;;;;;5027467;28;20235;-75
2021/06/03 02:50:30;;;;;;;7.70;7.10;;;21.00;99.90;;;;;;5026359;28;20279;-75
2021/06/03 02:52:56;;;;;;;11.07;7.10;;;20.90;99.90;;;;;;5028255;28;20525;-75
2021/06/03 02:55:24;;;;;;;6.87;6.30;;;20.80;99.90;;;;;;5031076;28;20722;-75
2021/06/03 02:57:50;;;;;;;8.23;7.10;;;20.90;99.90;;;;;;5030259;28;20431;-75
2021/06/03 03:00:23;;;;;;;8.00;7.40;;;21.00;99.90;;;;;;5025564;28;20446;-75
2021/06/03 03:02:49;;;;;;;7.47;6.60;;;20.80;99.90;;;;;;5030034;28;20442;-75
2021/06/03 03:05:15;;;;;;;7.90;7.20;;;20.70;99.90;;;;;;5029466;28;20826;-75
2021/06/03 03:07:41;;;;;;;7.27;6.67;;;20.70;99.90;;;;;;5027901;28;20216;-75
2021/06/03 03:10:11;;;;;;;7.37;6.50;;;20.70;99.90;;;;;;5027235;28;20192;-75
2021/06/03 03:12:37;;;;;;;8.53;7.10;;;20.80;99.90;;;;;;5027400;28;20427;-75
2021/06/03 03:15:05;;;;;;;14.63;7.60;;;20.70;99.90;;;;;;5028111;28;21115;-75
2021/06/03 03:17:31;;;;;;;8.40;7.60;;;20.60;99.90;;;;;;5024672;28;20458;-75
2021/06/03 03:19:56;;;;;;;8.00;7.30;;;20.50;99.90;;;;;;5023866;28;21196;-75
2021/06/03 03:22:22;;;;;;;8.77;7.97;;;20.50;99.90;;;;;;5024761;28;20192;-75
2021/06/03 03:24:47;;;;;;;7.83;7.13;;;20.40;99.90;;;;;;5028285;28;20295;-75
2021/06/03 03:27:13;;;;;;;7.87;7.17;;;20.50;99.90;;;;;;5027063;28;20216;-75
2021/06/03 03:29:39;;;;;;;9.70;7.53;;;20.40;99.90;;;;;;5030041;28;20222;-75
2021/06/03 03:32:06;;;;;;;8.87;8.10;;;20.40;99.90;;;;;;5022944;28;20223;-75
2021/06/03 03:34:31;;;;;;;8.60;7.90;;;20.50;99.90;;;;;;5028756;28;20439;-75
2021/06/03 03:36:57;;;;;;;7.93;6.33;;;20.60;99.90;;;;;;5026370;28;20446;-75
2021/06/03 03:39:23;;;;;;;8.10;7.40;;;20.80;99.90;;;;;;5027561;28;20220;-75
2021/06/03 03:41:49;;;;;;;7.53;6.87;;;20.80;99.90;;;;;;5027117;28;20581;-75
2021/06/03 03:44:14;;;;;;;7.20;6.57;;;20.90;99.90;;;;;;5031150;28;20207;-75
2021/06/03 03:46:40;;;;;;;7.97;7.20;;;20.90;99.90;;;;;;5028833;28;20228;-75
2021/06/03 03:49:06;;;;;;;7.90;6.93;;;20.90;99.90;;;;;;5023433;28;20243;-75
2021/06/03 03:51:31;;;;;;;8.30;6.93;;;20.90;99.90;;;;;;5029120;28;20188;-75
2021/06/03 03:53:57;;;;;;;10.93;6.73;;;20.90;99.90;;;;;;5024407;28;20311;-75
2021/06/03 03:56:22;;;;;;;7.93;7.30;;;21.00;99.90;;;;;;5029457;28;20239;-75
2021/06/03 03:58:49;;;;;;;7.80;7.10;;;21.10;99.90;;;;;;5024412;28;20303;-75
2021/06/03 04:01:15;;;;;;;9.07;7.50;;;21.10;99.90;;;;;;5031178;28;20196;-75
2021/06/03 04:03:41;;;;;;;7.17;6.57;;;21.10;99.90;;;;;;5027965;28;20835;-74
2021/06/03 04:06:07;;;;;;;8.20;7.50;;;21.10;99.90;;;;;;5029621;28;20446;-74
2021/06/03 04:08:33;;;;;;;8.10;7.30;;;21.00;99.90;;;;;;5023687;28;21115;-74
2021/06/03 04:10:59;;;;;;;7.40;6.70;;;20.90;99.90;;;;;;5027372;28;20415;-74
2021/06/03 04:13:26;;;;;;;7.30;6.70;;;20.90;99.90;;;;;;5029315;28;20184;-74
2021/06/03 04:15:52;;;;;;;7.57;6.07;;;20.80;99.90;;;;;;5028111;28;20950;-75
2021/06/03 04:18:17;;;;;;;7.67;6.93;;;20.80;99.90;;;;;;5026471;28;20551;-75
2021/06/03 04:20:43;;;;;;;7.90;7.10;;;20.90;99.90;;;;;;5026219;28;20196;-75
2021/06/03 04:23:09;;;;;;;7.03;6.43;;;20.90;99.90;;;;;;5027391;28;20219;-75
2021/06/03 04:25:34;;;;;;;7.07;6.47;;;20.80;99.90;;;;;;5026983;28;20230;-75
2021/06/03 04:28:00;;;;;;;7.57;6.70;;;20.90;99.90;;;;;;5023548;28;20231;-75
2021/06/03 04:30:27;;;;;;;7.33;6.63;;;20.90;99.90;;;;;;5027391;28;20658;-75
2021/06/03 04:32:52;;;;;;;9.27;7.87;;;21.00;99.90;;;;;;5019056;28;20181;-75
2021/06/03 04:35:20;;;;;;;8.20;7.40;;;21.20;99.90;;;;;;5025666;28;20530;-75
2021/06/03 04:37:47;;;;;;;8.40;7.60;;;21.10;99.90;;;;;;5026926;28;20189;-75
2021/06/03 04:40:15;;;;;;;8.93;7.00;;;21.00;99.90;;;;;;5023810;28;20434;-75
2021/06/03 04:42:42;;;;;;;8.20;7.40;;;20.90;99.90;;;;;;5026910;28;20975;-75
2021/06/03 04:45:08;;;;;;;8.30;7.50;;;20.90;99.90;;;;;;5025898;28;20479;-75
2021/06/03 04:47:34;;;;;;;8.27;7.50;;;21.10;99.90;;;;;;5021980;28;20432;-75
2021/06/03 04:50:00;;;;;;;8.00;7.30;;;21.10;99.90;;;;;;5023495;28;20916;-75
2021/06/03 04:52:31;;;;;;;8.23;6.80;;;21.00;99.90;;;;;;5025048;28;20529;-75
2021/06/03 04:55:00;;;;;;;8.60;7.80;;;21.10;99.90;;;;;;5023776;28;20435;-75
2021/06/03 04:57:26;;;;;;;7.83;7.10;;;21.10;99.90;;;;;;5024628;28;20431;-75
2021/06/03 04:59:52;;;;;;;7.80;7.10;;;21.10;99.90;;;;;;5024470;28;20485;-75
2021/06/03 05:02:20;;;;;;;8.13;6.90;;;21.20;99.90;;;;;;5023717;28;20443;-75
2021/06/03 05:04:46;;;;;;;7.97;7.27;;;21.10;99.90;;;;;;5026412;28;20230;-75
2021/06/03 05:07:12;;;;;;;7.60;6.97;;;21.20;99.90;;;;;;5023110;28;20455;-75
2021/06/03 05:09:38;;;;;;;9.80;7.33;;;21.30;99.90;;;;;;5024631;28;20212;-75
2021/06/03 05:12:05;;;;;;;7.27;6.57;;;21.40;99.90;;;;;;5025287;28;20181;-75
2021/06/03 05:14:31;;;;;;;7.87;7.17;;;21.50;99.90;;;;;;5025280;28;21141;-75
2021/06/03 05:16:58;;;;;;;7.27;6.73;;;21.60;99.90;;;;;;5024391;28;20447;-75
2021/06/03 05:19:24;;;;;;;7.67;7.07;;;21.60;99.90;;;;;;5028989;28;20235;-74
2021/06/03 05:21:50;;;;;;;8.20;7.50;;;21.60;99.90;;;;;;5026248;28;20518;-75
2021/06/03 05:24:15;;;;;;;8.30;7.57;;;21.60;99.90;;;;;;5023739;28;20556;-74
2021/06/03 05:26:41;;;;;;;7.30;6.60;;;21.60;99.90;;;;;;5023733;28;20207;-74
2021/06/03 05:29:13;;;;;;;8.53;7.80;;;21.70;99.90;;;;;;5022405;28;20224;-74
2021/06/03 05:31:39;;;;;;;6.87;6.27;;;21.80;99.90;;;;;;5025897;28;20184;-75
2021/06/03 05:34:05;;;;;;;7.50;6.80;;;21.90;99.90;;;;;;5028000;28;20466;-75
2021/06/03 05:36:30;;;;;;;7.53;6.70;;;21.90;99.90;;;;;;5024752;28;20284;-75
2021/06/03 05:38:56;;;;;;;7.97;7.20;;;21.90;99.90;;;;;;5026010;28;20294;-75
2021/06/03 05:41:21;;;;;;;9.27;6.97;;;22.00;99.90;;;;;;5026462;28;20744;-75
2021/06/03 05:43:47;;;;;;;8.97;5.80;;;22.10;99.90;;;;;;5025129;28;20200;-75
2021/06/03 05:46:12;;;;;;;9.17;5.80;;;22.20;99.90;;;;;;5022451;28;21801;-74
2021/06/03 05:48:38;;;;;;;8.03;7.23;;;22.30;99.90;;;;;;5026104;28;20217;-75
2021/06/03 05:51:04;;;;;;;7.03;6.43;;;22.30;99.90;;;;;;5025058;28;20193;-75
2021/06/03 05:53:30;;;;;;;6.40;5.90;;;22.40;99.90;;;;;;5024758;28;20219;-75
2021/06/03 05:55:55;;;;;;;7.60;6.90;;;22.50;99.90;;;;;;5023532;28;20900;-74
2021/06/03 05:58:21;;;;;;;6.50;5.90;;;22.50;99.90;;;;;;5025779;28;20223;-75
2021/06/03 06:00:46;;;;;;;7.27;6.67;;;22.60;99.90;;;;;;5025644;28;20195;-75
2021/06/03 06:03:17;;;;;;;6.60;6.00;;;22.70;99.90;;;;;;5024896;28;20216;-75
2021/06/03 06:08:23;;;;;;;7.00;6.40;;;22.60;99.90;;;;;;5025527;28;20536;-75
2021/06/03 06:10:49;;;;;;;7.23;6.67;;;22.50;99.90;;;;;;5023196;28;20565;-75
2021/06/03 06:13:15;;;;;;;7.93;7.10;;;22.50;99.90;;;;;;5022007;28;20200;-75
2021/06/03 06:15:41;;;;;;;7.17;6.40;;;22.50;99.90;;;;;;5023814;28;20223;-75
2021/06/03 06:18:08;;;;;;;7.03;6.07;;;22.50;99.90;;;;;;5025648;28;20673;-75
2021/06/03 06:20:34;;;;;;;8.70;7.90;;;22.40;99.90;;;;;;5026261;28;20966;-75
2021/06/03 06:23:00;;;;;;;7.90;7.30;;;22.40;99.90;;;;;;5024569;28;20500;-75
2021/06/03 06:25:27;;;;;;;7.60;6.90;;;22.50;99.90;;;;;;5022044;28;20435;-75
2021/06/03 06:27:53;;;;;;;6.40;5.90;;;22.60;99.90;;;;;;5026314;28;20716;-75
2021/06/03 06:30:20;;;;;;;7.03;6.33;;;22.60;99.90;;;;;;5022203;28;20484;-75
2021/06/03 06:32:46;;;;;;;7.07;6.47;;;22.70;99.90;;;;;;5024864;28;20446;-75
2021/06/03 06:35:14;;;;;;;6.63;5.70;;;22.60;99.90;;;;;;5025377;28;20439;-75
2021/06/03 06:37:40;;;;;;;6.73;6.13;;;22.60;99.90;;;;;;5024635;28;20265;-75
2021/06/03 06:40:09;;;;;;;7.27;6.67;;;22.70;99.90;;;;;;5020514;28;20479;-75
2021/06/03 06:42:35;;;;;;;7.87;7.07;;;22.80;99.90;;;;;;5025549;28;20713;-75
2021/06/03 06:45:03;;;;;;;6.30;5.80;;;22.80;99.90;;;;;;5023243;28;20470;-75
2021/06/03 06:47:29;;;;;;;6.63;6.10;;;22.80;99.90;;;;;;5024335;28;20447;-75
2021/06/03 06:49:55;;;;;;;6.07;5.57;;;22.60;99.90;;;;;;5024790;28;21158;-75
2021/06/03 06:52:21;;;;;;;6.80;6.10;;;22.80;99.90;;;;;;5023773;28;20442;-75
2021/06/03 06:54:47;;;;;;;6.30;5.80;;;22.90;99.90;;;;;;5022234;28;20203;-75
2021/06/03 06:57:13;;;;;;;7.80;6.33;;;23.00;99.90;;;;;;5022927;28;20295;-74
2021/06/03 06:59:39;;;;;;;6.87;6.23;;;23.00;99.90;;;;;;5023817;28;20877;-75
2021/06/03 07:02:04;;;;;;;6.50;5.90;;;23.00;99.90;;;;;;5024473;28;20451;-76
2021/06/03 07:04:30;;;;;;;6.10;5.60;;;23.10;99.90;;;;;;5021729;28;20215;-75
2021/06/03 07:06:56;;;;;;;6.00;5.40;;;23.20;99.90;;;;;;5021716;28;20697;-75
2021/06/03 07:09:21;;;;;;;6.63;5.90;;;23.30;99.90;;;;;;5022954;28;20208;-75
2021/06/03 07:11:47;;;;;;;6.63;5.93;;;23.30;99.90;;;;;;5020817;28;20212;-76
2021/06/03 07:14:13;;;;;;;7.10;6.13;;;23.50;99.90;;;;;;5028581;28;20193;-75
2021/06/03 07:16:38;;;;;;;6.47;5.87;;;23.50;99.90;;;;;;5026654;28;20235;-75
2021/06/03 07:19:04;;;;;;;6.50;5.90;;;23.50;99.90;;;;;;5026123;28;20238;-75
2021/06/03 07:21:31;;;;;;;6.10;5.60;;;23.50;99.90;;;;;;5022694;28;20204;-75
2021/06/03 07:23:56;;;;;;;6.10;5.60;;;23.70;99.90;;;;;;5019855;28;20231;-75
2021/06/03 07:26:24;;;;;;;5.70;5.07;;;23.80;99.90;;;;;;5019752;28;20428;-75
2021/06/03 07:28:51;;;;;;;6.17;5.53;;;24.20;99.90;;;;;;5025009;28;20734;-75
2021/06/03 07:31:17;;;;;;;6.43;5.47;;;24.40;99.90;;;;;;5024093;28;20505;-75
2021/06/03 07:33:42;;;;;;;5.40;5.00;;;24.50;99.90;;;;;;5027221;28;20471;-75
2021/06/03 07:36:08;;;;;;;5.93;5.07;;;24.60;99.90;;;;;;5025317;28;20450;-74
2021/06/03 07:38:35;;;;;;;5.60;5.10;;;24.50;99.90;;;;;;5028362;28;20208;-74
2021/06/03 07:41:02;;;;;;;5.40;5.00;;;24.60;99.90;;;;;;5026903;28;20429;-76
2021/06/03 07:43:28;;;;;;;5.13;4.63;;;24.60;99.90;;;;;;5027445;28;20968;-74
2021/06/03 07:45:55;;;;;;;5.93;5.43;;;24.60;99.90;;;;;;5025773;28;20439;-75
2021/06/03 07:48:21;;;;;;;5.87;5.37;;;24.50;99.90;;;;;;5024846;28;20295;-76
2021/06/03 07:50:47;;;;;;;5.40;4.93;;;24.30;99.90;;;;;;5027084;28;21199;-78
2021/06/03 07:53:13;;;;;;;10.27;5.13;;;24.50;99.90;;;;;;5025191;28;20207;-73
2021/06/03 07:55:38;;;;;;;5.43;4.97;;;24.60;99.90;;;;;;5025866;28;20435;-71
2021/06/03 07:58:09;;;;;;;5.40;4.90;;;24.70;99.90;;;;;;5025632;28;20197;-71
2021/06/03 08:00:36;;;;;;;5.50;5.00;;;24.80;99.90;;;;;;5026968;28;20781;-71
2021/06/03 08:03:04;;;;;;;5.50;4.93;;;24.80;99.90;;;;;;5024402;28;20451;-73
2021/06/03 08:05:30;;;;;;;6.17;4.70;;;24.90;99.90;;;;;;5027150;28;20442;-71
2021/06/03 08:07:56;;;;;;;5.63;5.00;;;24.60;99.90;;;;;;5025302;28;20923;-71
2021/06/03 08:10:26;;;;;;;4.73;4.33;;;24.40;99.90;;;;;;5024991;28;20463;-70
2021/06/03 08:12:54;;;;;;;4.90;4.50;;;24.30;99.90;;;;;;5026164;28;20431;-71
2021/06/03 08:15:20;;;;;;;5.67;5.20;;;24.40;99.90;;;;;;5025826;28;20969;-70
2021/06/03 08:17:46;;;;;;;5.33;4.90;;;24.50;99.90;;;;;;5028759;28;20981;-71
2021/06/03 08:20:19;;;;;;;5.43;5.03;;;24.50;99.90;;;;;;5025157;28;20589;-71
2021/06/03 08:22:45;;;;;;;5.27;4.87;;;24.70;99.90;;;;;;5022890;28;20829;-70
2021/06/03 08:25:13;;;;;;;5.20;4.90;;;24.60;99.90;;;;;;5026482;28;20471;-71
2021/06/03 08:27:39;;;;;;;5.97;5.40;;;24.70;99.90;;;;;;5026525;28;20454;-70
2021/06/03 08:30:08;;;;;;;5.13;4.73;;;24.80;99.90;;;;;;5025077;28;20569;-75
2021/06/03 08:32:34;;;;;;;4.70;4.30;;;25.00;99.90;;;;;;5025478;28;20811;-75
2021/06/03 08:34:59;;;;;;;5.27;4.57;;;25.20;99.90;;;;;;5026601;28;20435;-75
2021/06/03 08:37:25;;;;;;;5.97;5.47;;;25.20;99.90;;;;;;5024679;28;20260;-74
2021/06/03 08:39:51;;;;;;;5.13;4.73;;;24.80;99.90;;;;;;5021918;28;21601;-76
2021/06/03 08:42:17;;;;;;;5.23;4.83;;;24.90;99.90;;;;;;5023017;28;20565;-75
2021/06/03 08:44:43;;;;;;;5.40;5.00;;;25.20;99.90;;;;;;5020086;28;20627;-75
2021/06/03 08:47:09;;;;;;;5.50;5.10;;;25.40;99.90;;;;;;5019330;28;20231;-75
2021/06/03 08:49:37;;;;;;;5.77;5.33;;;25.30;99.90;;;;;;5025772;28;20462;-75
2021/06/03 08:52:04;;;;;;;7.13;5.20;;;25.30;99.90;;;;;;5024036;28;20415;-75
2021/06/03 08:54:40;;;;;;;5.60;5.10;;;25.30;99.90;;;;;;5027316;28;20439;-75
2021/06/03 08:57:11;;;;;;;5.20;4.80;;;25.30;99.90;;;;;;5023119;28;20465;-75
2021/06/03 08:59:37;;;;;;;4.73;4.33;;;25.40;99.90;;;;;;5025881;28;20450;-75
2021/06/03 09:02:04;;;;;;;5.00;4.60;;;25.50;99.90;;;;;;5025008;28;20443;-75
2021/06/03 09:04:30;;;;;;;5.20;4.73;;;25.80;99.90;;;;;;5027909;28;20521;-75
2021/06/03 09:06:55;;;;;;;4.93;4.63;;;25.90;99.90;;;;;;5030851;28;20423;-75
2021/06/03 09:09:26;;;;;;;4.90;4.50;;;25.80;99.90;;;;;;5025411;28;21347;-75
2021/06/03 09:12:12;;;;;;;4.50;4.13;;;25.70;99.90;;;;;;5019984;28;20258;-75
2021/06/03 09:14:38;;;;;;;4.83;4.53;;;25.80;99.90;;;;;;5026540;28;20426;-75
2021/06/03 09:17:04;;;;;;;5.20;4.70;;;25.70;99.90;;;;;;5024424;28;20457;-75
2021/06/03 09:19:29;;;;;;;5.30;4.80;;;25.80;99.90;;;;;;5021457;28;20550;-75
2021/06/03 09:21:55;;;;;;;5.10;4.70;;;25.90;99.90;;;;;;5025558;28;20223;-75
2021/06/03 09:24:22;;;;;;;4.60;4.20;;;26.10;99.90;;;;;;5023080;28;20204;-75
2021/06/03 09:26:53;;;;;;;4.53;4.23;;;26.20;99.90;;;;;;5022002;28;20192;-75
2021/06/03 09:29:24;;;;;;;4.77;4.37;;;26.30;99.90;;;;;;5026003;28;21015;-76
2021/06/03 09:31:52;;;;;;;5.50;5.00;;;26.30;99.90;;;;;;5020289;28;20507;-74
2021/06/03 09:34:20;;;;;;;5.47;4.70;;;26.20;99.90;;;;;;5023219;28;21191;-75
2021/06/03 09:36:59;;;;;;;5.37;4.97;;;26.30;99.90;;;;;;5025582;28;20857;-75
2021/06/03 09:39:39;;;;;;;5.80;5.30;;;26.40;99.90;;;;;;5021670;28;20466;-76
2021/06/03 09:42:18;;;;;;;6.10;5.20;;;26.20;99.90;;;;;;5022781;28;21060;-75
2021/06/03 09:44:53;;;;;;;5.93;5.43;;;26.30;99.90;;;;;;5020566;28;20462;-75
2021/06/03 09:47:21;;;;;;;5.37;4.90;;;26.40;99.90;;;;;;5024808;28;20443;-76
2021/06/03 09:49:58;;;;;;;5.47;4.97;;;26.60;99.90;;;;;;5023506;28;20481;-75
2021/06/03 09:52:28;;;;;;;4.10;3.80;;;26.50;99.90;;;;;;5023962;28;20422;-74
2021/06/03 09:54:58;;;;;;;4.97;4.67;;;26.40;99.90;;;;;;5021462;28;20447;-76
2021/06/03 09:57:32;;;;;;;5.10;4.70;;;26.30;99.90;;;;;;5024391;28;20550;-75
2021/06/03 09:59:59;;;;;;;5.90;5.00;;;26.50;99.90;;;;;;5020004;28;20472;-76
2021/06/03 10:02:25;;;;;;;4.73;4.43;;;26.60;99.90;;;;;;5021697;28;20450;-76
2021/06/03 10:04:54;;;;;;;5.13;4.73;;;26.70;99.90;;;;;;5021175;28;20957;-76
2021/06/03 10:07:25;;;;;;;5.57;5.13;;;26.70;99.90;;;;;;5026789;28;20183;-76
2021/06/03 10:09:53;;;;;;;4.93;4.53;;;26.80;99.90;;;;;;5021670;28;20443;-76
2021/06/03 10:12:27;;;;;;;5.00;4.60;;;26.90;99.90;;;;;;5018328;28;20552;-76
2021/06/03 10:15:03;;;;;;;4.90;4.53;;;27.00;99.90;;;;;;5022117;28;20525;-76
2021/06/03 10:17:47;;;;;;;5.73;5.20;;;27.00;99.90;;;;;;5019236;28;20454;-73
2021/06/03 10:20:18;;;;;;;4.70;4.30;;;26.80;99.90;;;;;;5022858;28;20462;-72
2021/06/03 10:22:46;;;;;;;5.13;4.63;;;26.60;99.90;;;;;;5024464;28;20431;-75
2021/06/03 10:25:25;;;;;;;4.80;4.40;;;26.60;99.90;;;;;;5024650;28;20527;-73
2021/06/03 10:27:58;;;;;;;5.30;4.80;;;26.70;99.90;;;;;;5024622;28;20428;-75
2021/06/03 10:30:27;;;;;;;6.30;4.37;;;26.90;99.90;;;;;;5025349;28;20528;-74
2021/06/03 10:32:56;;;;;;;4.87;4.47;;;27.00;99.90;;;;;;5024973;28;20426;-76
2021/06/03 10:35:33;;;;;;;5.33;4.50;;;26.80;99.90;;;;;;5022699;28;20435;-75
2021/06/03 10:38:00;;;;;;;4.80;4.40;;;27.00;99.90;;;;;;5026795;28;20431;-73
2021/06/03 10:40:29;;;;;;;5.40;5.00;;;26.90;99.90;;;;;;5021678;28;20445;-74
2021/06/03 10:42:56;;;;;;;4.90;4.50;;;26.90;99.90;;;;;;5020928;28;20435;-76
2021/06/03 10:45:25;;;;;;;6.90;5.07;;;27.20;99.90;;;;;;5025607;28;21012;-75
2021/06/03 10:47:52;;;;;;;5.60;5.20;;;27.60;99.90;;;;;;5023993;28;20477;-77
2021/06/03 10:50:20;;;;;;;5.50;5.00;;;27.50;99.90;;;;;;5027032;28;20534;-75
2021/06/03 10:52:47;;;;;;;4.43;4.03;;;27.50;99.90;;;;;;5027090;28;20435;-75
2021/06/03 10:55:34;;;;;;;4.47;4.17;;;27.60;99.90;;;;;;5028972;28;20849;-75
2021/06/03 10:58:03;;;;;;;4.57;4.27;;;27.50;99.90;;;;;;5026592;28;20438;-74
2021/06/03 11:00:49;;;;;;;6.70;4.83;;;27.60;99.90;;;;;;5026379;28;20516;-75
2021/06/03 11:03:19;;;;;;;5.83;5.43;;;27.40;99.90;;;;;;5023296;28;20968;-77
2021/06/03 11:05:46;;;;;;;4.67;4.30;;;27.50;99.90;;;;;;5030184;28;20436;-76
2021/06/03 11:08:50;;;;;;;6.10;4.70;;;27.30;99.90;;;;;;5026121;28;20977;-78
2021/06/03 11:11:22;;;;;;;4.70;4.37;;;27.10;99.90;;;;;;5032393;28;20404;-77
2021/06/03 11:13:47;;;;;;;4.53;4.23;;;27.00;99.90;;;;;;5021764;28;20426;-76
2021/06/03 11:16:26;;;;;;;5.33;4.90;;;27.20;99.90;;;;;;5027016;28;20513;-77
2021/06/03 11:18:56;;;;;;;4.90;4.00;;;27.40;99.90;;;;;;5027765;28;20236;-75
2021/06/03 11:21:42;;;;;;;4.53;4.13;;;27.40;99.90;;;;;;5029146;28;20422;-74
2021/06/03 11:24:14;;;;;;;9.17;8.33;;;27.50;99.90;;;;;;5027830;28;20465;-75
2021/06/03 11:26:40;;;;;;;5.47;5.07;;;27.30;99.90;;;;;;5028116;28;20447;-74
2021/06/03 11:29:20;;;;;;;4.77;4.43;;;27.40;99.90;;;;;;5026877;28;20462;-77
2021/06/03 11:32:16;;;;;;;5.17;4.77;;;27.90;99.90;;;;;;5024301;28;20219;-75
2021/06/03 11:34:49;;;;;;;4.90;4.50;;;28.10;99.90;;;;;;5020741;28;20509;-74
2021/06/03 11:37:45;;;;;;;4.90;4.60;;;28.40;99.90;;;;;;5026433;28;20426;-74
2021/06/03 11:40:19;;;;;;;5.07;4.67;;;28.50;99.90;;;;;;5013872;28;20545;-74
2021/06/03 11:42:50;;;;;;;5.07;4.67;;;28.50;99.90;;;;;;5024148;28;20470;-73
2021/06/03 11:45:41;;;;;;;5.60;5.10;;;28.60;99.80;;;;;;5024405;28;20559;-73
2021/06/03 11:48:20;;;;;;;5.27;4.87;;;28.20;99.40;;;;;;5026265;28;20484;-75
2021/06/03 11:50:48;;;;;;;5.27;4.87;;;28.40;99.70;;;;;;5024067;28;20438;-74
2021/06/03 11:53:19;;;;;;;6.37;5.77;;;28.10;99.40;;;;;;5025426;28;20439;-74
2021/06/03 11:56:15;;;;;;;4.53;4.07;;;27.80;99.90;;;;;;5022264;28;20482;-75
2021/06/03 11:58:41;;;;;;;5.30;4.90;;;28.00;99.80;;;;;;5020866;28;20525;-75
2021/06/03 12:01:16;;;;;;;4.37;4.07;;;28.20;99.40;;;;;;5023154;28;20443;-75
2021/06/03 12:04:10;;;;;;;4.80;4.50;;;28.50;99.60;;;;;;5011828;28;20200;-74
2021/06/03 12:06:39;;;;;;;5.10;4.70;;;28.80;99.80;;;;;;5016195;28;20475;-75
2021/06/03 12:09:23;;;;;;;5.10;4.73;;;28.90;99.90;;;;;;5024288;28;20550;-73
2021/06/03 12:11:54;;;;;;;5.20;4.70;;;28.70;99.10;;;;;;5021830;28;20489;-75
2021/06/03 12:14:28;;;;;;;5.37;4.93;;;28.70;99.50;;;;;;5022302;28;21242;-73
2021/06/03 12:17:04;;;;;;;5.90;5.40;;;28.70;98.90;;;;;;5021295;28;20442;-74
2021/06/03 12:19:38;;;;;;;4.70;4.30;;;28.70;99.40;;;;;;5008699;28;20553;-75
2021/06/03 12:22:06;;;;;;;5.27;4.13;;;28.50;98.60;;;;;;5016510;28;20438;-72
2021/06/03 12:24:43;;;;;;;4.73;4.17;;;28.60;98.00;;;;;;5025676;28;20474;-73
2021/06/03 12:27:29;;;;;;;4.50;4.10;;;28.30;96.90;;;;;;5021257;28;20487;-74
2021/06/03 12:30:09;;;;;;;4.90;3.90;;;28.60;97.40;;;;;;5020370;28;20568;-74
2021/06/03 12:32:35;;;;;;;4.43;4.03;;;28.50;97.30;;;;;;5015529;28;20455;-73
2021/06/03 12:35:01;;;;;;;4.43;4.13;;;28.60;96.70;;;;;;5010267;28;20540;-74
2021/06/03 12:37:33;;;;;;;5.00;4.60;;;28.70;97.00;;;;;;5022822;28;20196;-74
2021/06/03 12:40:00;;;;;;;4.80;4.50;;;28.70;96.80;;;;;;5023332;28;20322;-73
2021/06/03 12:42:28;;;;;;;4.50;3.97;;;28.80;96.70;;;;;;5022647;28;20447;-75
2021/06/03 12:45:07;;;;;;;4.47;4.07;;;28.40;96.20;;;;;;5021529;28;20475;-74
2021/06/03 12:47:35;;;;;;;4.63;4.20;;;28.50;96.50;;;;;;5009976;28;21216;-74
2021/06/03 12:50:07;;;;;;;5.23;4.73;;;28.40;96.10;;;;;;5022031;28;20505;-73
2021/06/03 12:52:32;;;;;;;4.37;4.07;;;28.20;95.90;;;;;;5023214;28;21027;-73
2021/06/03 12:54:59;;;;;;;4.37;3.97;;;28.10;96.20;;;;;;5025894;28;20427;-73
2021/06/03 12:57:26;;;;;;;5.10;4.70;;;28.20;96.50;;;;;;5022394;28;20835;-73